Time;durP1;ratioP1;P1;durP2;ratioP2;P2;SDS_P1;SDS_P2;PMS_P1;PMS_P2;Temp;Humidity;BMP_temperature;BMP_pressure;BME280_temperature;BME280_humidity;BME280_pressure;Samples;Min_cycle;Max_cycle;Signal;HPM_P1;HPM_P2
2024/01/16 00:01:43;;;;;;;21.73;15.95;;;;;;;-145.63;60.19;39251.09;5022655;28;20092;-63
2024/01/16 00:04:10;;;;;;;22.55;17.15;;;;;;;-145.63;60.56;39235.47;5003573;28;20385;-62
2024/01/16 00:06:42;;;;;;;20.77;15.65;;;;;;;-145.63;60.28;39223.72;5017108;28;20033;-63
2024/01/16 00:09:10;;;;;;;20.00;15.73;;;;;;;-145.63;60.36;39210.03;5021386;28;20104;-64
2024/01/16 00:11:44;;;;;;;19.95;15.15;;;;;;;-145.63;60.31;39235.47;5022310;28;20076;-63
2024/01/16 00:14:10;;;;;;;22.67;15.85;;;;;;;-145.63;59.84;39245.25;5022487;28;20052;-64
2024/01/16 00:16:47;;;;;;;21.40;15.75;;;;;;;-145.63;59.85;39243.28;5022329;28;20034;-63
2024/01/16 00:19:13;;;;;;;20.70;15.20;;;;;;;-145.63;59.35;39237.41;5003492;28;20046;-63
2024/01/16 00:21:46;;;;;;;17.98;14.30;;;;;;;-145.63;59.02;39215.91;5032237;28;20036;-62
2024/01/16 00:24:11;;;;;;;18.90;15.00;;;;;;;-145.63;59.29;39231.53;5030742;28;20105;-63
2024/01/16 00:26:37;;;;;;;18.73;14.48;;;;;;;-145.63;58.84;39223.72;5015756;28;20018;-63
2024/01/16 00:29:03;;;;;;;20.20;14.27;;;;;;;-145.63;58.55;39227.63;5003859;28;20034;-63
2024/01/16 00:31:28;;;;;;;17.02;13.70;;;;;;;-145.63;58.97;39208.06;5022116;28;20064;-62
2024/01/16 00:33:54;;;;;;;17.67;14.00;;;;;;;-145.63;58.78;39243.28;5022302;28;20038;-63
2024/01/16 00:36:20;;;;;;;18.55;14.93;;;;;;;-145.63;59.46;39255.00;5022180;28;20038;-63
2024/01/16 00:38:46;;;;;;;16.65;13.50;;;;;;;-145.63;58.89;39241.31;5013345;28;20042;-63
2024/01/16 00:41:14;;;;;;;18.63;13.88;;;;;;;-145.63;58.42;39212.00;5005106;28;20384;-63
2024/01/16 00:43:41;;;;;;;14.70;12.57;;;;;;;-145.63;58.17;39255.00;5009422;28;20033;-63
2024/01/16 00:46:07;;;;;;;18.85;13.15;;;;;;;-145.63;58.97;39231.53;5002551;28;20096;-64
2024/01/16 00:48:33;;;;;;;18.08;14.13;;;;;;;-145.63;58.34;39217.84;5029942;28;20030;-63
2024/01/16 00:50:59;;;;;;;18.33;13.48;;;;;;;-145.63;57.95;39229.59;5033785;28;20045;-63
2024/01/16 00:53:26;;;;;;;16.98;13.65;;;;;;;-145.63;58.17;39237.41;5021916;28;20026;-64
2024/01/16 00:55:54;;;;;;;20.15;14.60;;;;;;;-145.63;58.62;39256.97;5021988;28;20025;-63
2024/01/16 00:58:21;;;;;;;17.80;13.77;;;;;;;-145.63;58.62;39235.47;5002369;28;20045;-64
2024/01/16 01:00:47;;;;;;;15.75;12.68;;;;;;;-145.63;58.05;39149.41;5017501;28;20030;-63
2024/01/16 01:03:13;;;;;;;18.88;13.20;;;;;;;-145.63;58.23;39237.41;5013952;28;20041;-63
2024/01/16 01:05:39;;;;;;;17.17;13.95;;;;;;;-145.63;58.39;39249.16;5012079;28;20036;-63
2024/01/16 01:08:05;;;;;;;18.23;14.32;;;;;;;-145.63;58.49;39298.03;5025090;28;20062;-64
2024/01/16 01:10:31;;;;;;;17.48;13.85;;;;;;;-145.63;58.69;39268.72;5025364;28;20056;-64
2024/01/16 01:12:56;;;;;;;18.08;14.27;;;;;;;-145.63;58.22;39249.16;5025182;28;20338;-63
2024/01/16 01:15:22;;;;;;;18.35;14.27;;;;;;;-145.63;59.00;39225.69;5024051;28;20068;-63
2024/01/16 01:17:49;;;;;;;18.23;14.27;;;;;;;-145.63;58.26;39235.47;5017735;28;20334;-63
2024/01/16 01:20:15;;;;;;;17.60;13.50;;;;;;;-145.63;58.30;39272.63;5008441;28;20234;-63
2024/01/16 01:22:41;;;;;;;18.92;13.30;;;;;;;-145.63;58.27;39243.28;5025010;28;20029;-63
2024/01/16 01:25:07;;;;;;;18.80;13.30;;;;;;;-145.63;57.80;39235.47;5023607;28;20034;-63
2024/01/16 01:27:33;;;;;;;17.23;14.18;;;;;;;-145.63;58.76;39075.09;5038514;28;20075;-64
2024/01/16 01:29:58;;;;;;;17.33;13.65;;;;;;;-145.63;58.07;39253.06;5035857;28;20042;-63
2024/01/16 01:32:24;;;;;;;17.98;13.60;;;;;;;-145.63;58.16;39256.97;5023906;28;20049;-63
2024/01/16 01:34:50;;;;;;;20.95;14.50;;;;;;;-145.63;57.87;39208.06;5024841;28;20037;-63
2024/01/16 01:37:15;;;;;;;18.05;13.85;;;;;;;-145.63;58.13;39262.84;5005992;28;20042;-63
2024/01/16 01:39:41;;;;;;;18.70;13.68;;;;;;;-145.63;58.44;39239.38;5018375;28;20030;-63
2024/01/16 01:42:07;;;;;;;16.00;12.93;;;;;;;-145.63;58.34;39251.09;5032767;28;20193;-62
2024/01/16 01:44:32;;;;;;;18.85;14.40;;;;;;;-145.63;57.68;39249.16;5019736;28;20072;-64
2024/01/16 01:46:58;;;;;;;16.55;12.90;;;;;;;-145.63;58.16;39231.53;5024345;28;20045;-63
2024/01/16 01:49:25;;;;;;;17.30;13.32;;;;;;;-145.63;57.84;39231.53;5014120;28;20025;-63
2024/01/16 01:51:51;;;;;;;18.38;13.93;;;;;;;-145.63;57.76;39258.94;5028496;28;20033;-64
2024/01/16 01:54:20;;;;;;;16.02;12.95;;;;;;;-145.63;57.40;39235.47;5024464;28;20037;-64
2024/01/16 01:56:47;;;;;;;17.90;13.85;;;;;;;-145.63;57.35;39241.31;5024445;28;20038;-64
2024/01/16 01:59:20;;;;;;;18.80;13.25;;;;;;;-145.63;57.32;39233.50;5022390;28;20034;-64
2024/01/16 02:01:48;;;;;;;16.40;13.35;;;;;;;-145.63;57.59;39229.59;5004789;28;20077;-63
2024/01/16 02:04:17;;;;;;;17.67;13.07;;;;;;;-145.63;57.13;39286.31;5023230;28;20321;-63
2024/01/16 02:06:44;;;;;;;16.88;13.35;;;;;;;-145.63;57.26;39255.00;5012186;28;20260;-64
2024/01/16 02:09:13;;;;;;;18.27;12.70;;;;;;;-145.63;57.76;39256.97;5024401;28;20089;-64
2024/01/16 02:11:42;;;;;;;15.77;11.82;;;;;;;-145.63;57.09;39239.38;5024149;28;20060;-64
2024/01/16 02:14:10;;;;;;;17.75;13.68;;;;;;;-145.63;57.01;39223.72;5025493;28;20044;-64
2024/01/16 02:16:38;;;;;;;17.00;13.10;;;;;;;-145.63;57.24;39213.94;5024471;28;20026;-64
2024/01/16 02:19:04;;;;;;;17.52;12.57;;;;;;;-145.63;56.84;39225.69;5007051;28;20032;-64
2024/01/16 02:21:39;;;;;;;17.02;12.57;;;;;;;-145.63;57.07;38742.66;5016953;28;20049;-64
2024/01/16 02:24:09;;;;;;;16.58;11.55;;;;;;;-145.63;57.01;39225.69;5023824;28;20041;-65
2024/01/16 02:26:35;;;;;;;17.00;12.13;;;;;;;-145.63;56.74;39255.00;5019002;28;20100;-64
2024/01/16 02:29:03;;;;;;;13.93;11.88;;;;;;;-145.63;57.18;39255.00;5003443;28;20042;-63
2024/01/16 02:31:29;;;;;;;17.13;12.98;;;;;;;-145.63;56.94;39227.63;5023792;28;20068;-65
2024/01/16 02:33:54;;;;;;;17.25;12.80;;;;;;;-145.63;57.10;39077.06;5023803;28;20298;-64
2024/01/16 02:36:20;;;;;;;14.98;11.73;;;;;;;-145.63;57.09;39235.47;5012910;28;20050;-64
2024/01/16 02:38:46;;;;;;;17.15;12.95;;;;;;;-145.63;57.01;39239.38;5010304;28;20035;-64
2024/01/16 02:41:14;;;;;;;18.08;12.85;;;;;;;-145.63;57.24;39258.94;5022283;28;20064;-63
2024/01/16 02:43:40;;;;;;;18.10;13.10;;;;;;;-145.63;57.24;39235.47;5021684;28;20029;-62
2024/01/16 02:46:06;;;;;;;14.73;12.07;;;;;;;-145.63;56.75;39227.63;5020775;28;20084;-63
2024/01/16 02:48:31;;;;;;;16.80;11.55;;;;;;;-145.63;56.20;39241.31;5011448;28;20026;-63
2024/01/16 02:50:57;;;;;;;16.35;12.27;;;;;;;-145.63;56.66;39253.06;5030144;28;20053;-63
2024/01/16 02:53:22;;;;;;;15.75;11.60;;;;;;;-145.63;56.56;39256.97;5020593;28;20029;-64
2024/01/16 02:55:48;;;;;;;15.93;12.00;;;;;;;-145.63;56.34;39272.63;5003675;28;20038;-64
2024/01/16 02:58:14;;;;;;;15.52;12.13;;;;;;;-145.63;56.15;39255.00;5021954;28;20033;-64
2024/01/16 03:00:39;;;;;;;15.48;11.45;;;;;;;-145.63;56.78;39235.47;5010049;28;20316;-64
2024/01/16 03:03:08;;;;;;;13.80;11.65;;;;;;;-145.63;56.74;39247.19;5012354;28;20256;-65
2024/01/16 03:05:33;;;;;;;14.73;11.55;;;;;;;-145.63;56.63;39294.13;5019057;28;20030;-64
2024/01/16 03:07:59;;;;;;;16.60;12.30;;;;;;;-145.63;56.56;39243.28;5016514;28;20149;-64
2024/01/16 03:10:25;;;;;;;15.82;12.43;;;;;;;-145.63;56.66;39229.59;5023039;28;20089;-64
2024/01/16 03:12:51;;;;;;;16.30;12.60;;;;;;;-145.63;56.55;39251.09;5022960;28;20029;-64
2024/01/16 03:15:17;;;;;;;15.65;11.95;;;;;;;-145.63;56.95;39266.75;5023160;28;20025;-63
2024/01/16 03:17:42;;;;;;;17.13;12.82;;;;;;;-145.63;56.91;39241.31;5017433;28;20085;-63
2024/01/16 03:20:09;;;;;;;17.33;12.50;;;;;;;-145.63;56.32;39247.19;5003725;28;20101;-64
2024/01/16 03:22:34;;;;;;;15.75;11.57;;;;;;;-145.63;56.74;39266.75;5023015;28;20022;-64
2024/01/16 03:25:02;;;;;;;16.30;11.60;;;;;;;-145.63;56.44;39249.16;5006228;28;20350;-64
2024/01/16 03:27:30;;;;;;;13.68;10.93;;;;;;;-145.63;56.95;39212.00;5014867;28;20493;-63
2024/01/16 03:29:56;;;;;;;15.25;12.13;;;;;;;-145.63;56.68;39116.16;5015291;28;20042;-64
2024/01/16 03:32:21;;;;;;;18.30;12.25;;;;;;;-145.63;56.41;39251.09;5020487;28;20593;-64
2024/01/16 03:34:47;;;;;;;17.00;12.07;;;;;;;-145.63;56.13;39229.59;5022658;28;20034;-64
2024/01/16 03:37:13;;;;;;;15.80;12.27;;;;;;;-145.63;56.66;39229.59;5016228;28;20044;-63
2024/01/16 03:39:38;;;;;;;21.67;14.77;;;;;;;-145.63;56.89;39249.16;5015389;28;20036;-63
2024/01/16 03:42:04;;;;;;;18.17;12.82;;;;;;;-145.63;57.03;39227.63;5007263;28;20038;-64
2024/01/16 03:44:30;;;;;;;18.05;13.18;;;;;;;-145.63;57.13;39255.00;5011445;28;20089;-63
2024/01/16 03:46:56;;;;;;;17.05;13.23;;;;;;;-145.63;57.34;39258.94;5002680;28;20110;-62
2024/01/16 03:49:21;;;;;;;17.05;13.40;;;;;;;-145.63;57.38;39260.88;5025668;28;20148;-63
2024/01/16 03:51:47;;;;;;;18.08;13.82;;;;;;;-145.63;57.99;39247.19;5028070;28;20025;-63
2024/01/16 03:54:13;;;;;;;16.15;12.68;;;;;;;-145.63;57.09;39212.00;5022657;28;20080;-62
2024/01/16 03:56:40;;;;;;;18.92;13.45;;;;;;;-145.63;57.51;39194.38;5014491;28;20056;-63
2024/01/16 03:59:05;;;;;;;16.70;13.27;;;;;;;-145.63;57.53;39278.47;5002921;28;20034;-64
2024/01/16 04:01:32;;;;;;;20.02;13.40;;;;;;;-145.63;57.01;39067.28;5017886;28;20037;-62
2024/01/16 04:03:58;;;;;;;18.90;13.85;;;;;;;-145.63;57.70;39243.28;5019733;28;20033;-63
2024/01/16 04:06:24;;;;;;;18.55;13.65;;;;;;;-145.63;57.28;39251.09;5014743;28;20026;-63
2024/01/16 04:08:50;;;;;;;18.38;13.02;;;;;;;-145.63;57.13;39270.66;5021998;28;20026;-63
2024/01/16 04:11:16;;;;;;;17.02;13.27;;;;;;;-145.63;57.01;39241.31;5023127;28;20048;-63
2024/01/16 04:13:42;;;;;;;17.83;13.30;;;;;;;-145.63;57.29;39286.31;5022451;28;20022;-64
2024/01/16 04:16:08;;;;;;;17.67;13.70;;;;;;;-145.63;57.28;39237.41;5032830;28;20101;-63
2024/01/16 04:18:38;;;;;;;16.45;13.07;;;;;;;-145.63;57.11;39225.69;5030182;28;20080;-63
2024/01/16 04:21:04;;;;;;;16.92;12.73;;;;;;;-145.63;57.53;39221.78;5014129;28;20118;-63
2024/01/16 04:23:30;;;;;;;16.75;12.77;;;;;;;-145.63;57.20;39233.50;5005887;28;20025;-63
2024/01/16 04:25:56;;;;;;;19.58;13.18;;;;;;;-145.63;56.67;39247.19;5022085;28;20140;-63
2024/01/16 04:28:21;;;;;;;21.83;14.07;;;;;;;-145.63;56.75;39235.47;5003682;28;20081;-63
2024/01/16 04:30:47;;;;;;;18.65;14.32;;;;;;;-145.63;56.61;39243.28;5015645;28;20054;-63
2024/01/16 04:33:13;;;;;;;19.67;14.10;;;;;;;-145.63;55.91;39215.91;5022089;28;20037;-63
2024/01/16 04:35:39;;;;;;;19.83;13.63;;;;;;;-145.63;56.05;39200.25;5022164;28;20117;-64
2024/01/16 04:38:04;;;;;;;19.08;14.07;;;;;;;-145.63;56.57;39251.09;5025035;28;20042;-63
2024/01/16 04:40:30;;;;;;;18.50;13.77;;;;;;;-145.63;55.88;39272.63;5006576;28;20194;-64
2024/01/16 04:42:55;;;;;;;17.83;13.40;;;;;;;-145.63;56.27;39235.47;5013886;28;20037;-64
2024/01/16 04:45:21;;;;;;;19.70;14.52;;;;;;;-145.63;56.16;39241.31;5020305;28;20041;-64
2024/01/16 04:47:47;;;;;;;16.98;12.82;;;;;;;-145.63;56.11;39237.41;5020391;28;20027;-62
2024/01/16 04:50:13;;;;;;;18.15;14.00;;;;;;;-145.63;55.97;39251.09;5027569;28;20024;-63
2024/01/16 04:52:38;;;;;;;20.10;13.73;;;;;;;-145.63;56.53;39208.06;5025537;28;20033;-63
2024/01/16 04:55:04;;;;;;;22.23;14.85;;;;;;;-145.63;56.56;39221.78;5025333;28;20137;-62
2024/01/16 04:57:30;;;;;;;20.35;14.30;;;;;;;-145.63;57.03;39196.34;5014501;28;20026;-62
2024/01/16 04:59:56;;;;;;;18.17;13.43;;;;;;;-145.63;56.08;39229.59;5012373;28;20030;-62
2024/01/16 05:02:21;;;;;;;19.38;14.43;;;;;;;-145.63;56.28;39284.34;5023029;28;20222;-61
2024/01/16 05:04:49;;;;;;;18.95;13.85;;;;;;;-145.63;55.84;39229.59;5024397;28;20076;-62
2024/01/16 05:07:15;;;;;;;18.92;13.98;;;;;;;-145.63;56.67;39235.47;5022461;28;20026;-62
2024/01/16 05:09:41;;;;;;;19.58;14.18;;;;;;;-145.63;56.44;39255.00;5014679;28;20322;-62
2024/01/16 05:12:06;;;;;;;21.10;15.02;;;;;;;-145.63;56.26;39192.44;5021961;28;20068;-62
2024/01/16 05:14:32;;;;;;;19.75;14.38;;;;;;;-145.63;56.12;39235.47;5024866;28;20030;-62
2024/01/16 05:16:58;;;;;;;19.17;13.60;;;;;;;-145.63;56.09;39278.47;5024927;28;20049;-62
2024/01/16 05:19:23;;;;;;;21.30;14.05;;;;;;;-145.63;55.86;39235.47;5006942;28;20030;-60
2024/01/16 05:21:49;;;;;;;18.98;14.25;;;;;;;-145.63;56.01;39225.69;5018708;28;20049;-62
2024/01/16 05:24:15;;;;;;;22.27;14.77;;;;;;;-145.63;55.72;39237.41;5016286;28;20061;-61
2024/01/16 05:26:41;;;;;;;18.23;13.23;;;;;;;-145.63;56.22;39253.06;5009354;28;20235;-63
2024/01/16 05:29:06;;;;;;;22.20;14.27;;;;;;;-145.63;56.54;39247.19;5024602;28;20046;-62
2024/01/16 05:31:32;;;;;;;19.67;14.68;;;;;;;-145.63;56.13;39239.38;5016257;28;20356;-62
2024/01/16 05:33:58;;;;;;;21.08;14.70;;;;;;;-145.63;55.74;39241.31;5024785;28;20033;-62
2024/01/16 05:36:24;;;;;;;21.38;15.35;;;;;;;-145.63;55.87;39241.31;5024856;28;20034;-62
2024/01/16 05:38:50;;;;;;;19.77;14.73;;;;;;;-145.63;56.16;39247.19;5051264;28;20061;-62
2024/01/16 05:41:16;;;;;;;22.13;15.68;;;;;;;-145.63;55.70;39190.47;5005601;28;20026;-61
2024/01/16 05:43:41;;;;;;;20.30;14.32;;;;;;;-145.63;55.63;39225.69;5024742;28;20026;-61
2024/01/16 05:46:07;;;;;;;20.40;14.93;;;;;;;-145.63;55.78;39180.69;5008821;28;20049;-61
2024/01/16 05:48:33;;;;;;;22.15;15.43;;;;;;;-145.63;55.74;39221.78;5014946;28;20422;-61
2024/01/16 05:50:59;;;;;;;21.50;15.60;;;;;;;-145.63;55.88;39276.53;5035446;28;20049;-63
2024/01/16 05:53:24;;;;;;;23.98;16.10;;;;;;;-145.63;56.41;39255.00;5024424;28;20033;-62
2024/01/16 05:55:50;;;;;;;23.55;15.75;;;;;;;-145.63;55.81;39251.09;5024432;28;20346;-63
2024/01/16 05:58:15;;;;;;;23.60;15.60;;;;;;;-145.63;55.86;39241.31;5007750;28;20403;-62
2024/01/16 06:00:41;;;;;;;20.35;15.85;;;;;;;-145.63;55.47;39243.28;5016782;28;20053;-60
2024/01/16 06:03:07;;;;;;;20.80;15.70;;;;;;;-145.63;55.59;39251.09;5016914;28;20034;-61
2024/01/16 06:05:33;;;;;;;23.45;15.95;;;;;;;-145.63;55.70;39208.06;5007278;28;20026;-61
2024/01/16 06:07:58;;;;;;;23.33;16.15;;;;;;;-145.63;55.62;39227.63;5024082;28;20029;-61
2024/01/16 06:10:24;;;;;;;22.55;15.98;;;;;;;-145.63;56.08;39272.63;5039293;28;20068;-60
2024/01/16 06:12:50;;;;;;;22.88;16.00;;;;;;;-145.63;55.42;39253.06;5022687;28;20073;-60
2024/01/16 06:15:15;;;;;;;22.30;15.55;;;;;;;-145.63;55.82;39221.78;5024007;28;20028;-60
2024/01/16 06:17:41;;;;;;;23.00;15.55;;;;;;;-145.63;55.51;39249.16;5020469;28;20097;-61
2024/01/16 06:20:07;;;;;;;20.00;15.00;;;;;;;-145.63;55.28;39225.69;5003182;28;20034;-61
2024/01/16 06:22:33;;;;;;;23.25;15.95;;;;;;;-145.63;55.31;39217.84;5023222;28;20075;-60
2024/01/16 06:24:58;;;;;;;23.48;16.33;;;;;;;-145.63;55.17;39243.28;5009929;28;20207;-61
2024/01/16 06:27:24;;;;;;;24.02;15.52;;;;;;;-145.63;55.75;39245.25;5014004;28;20030;-61
2024/01/16 06:29:51;;;;;;;22.25;15.43;;;;;;;-145.63;55.83;39217.84;5018786;28;20319;-60
2024/01/16 06:32:16;;;;;;;23.75;15.80;;;;;;;-145.63;55.75;39258.94;5021811;28;20036;-61
2024/01/16 06:34:42;;;;;;;25.63;15.75;;;;;;;-145.63;55.28;39241.31;5024124;28;20033;-60
2024/01/16 06:37:11;;;;;;;23.88;16.33;;;;;;;-145.63;55.91;39235.47;5023565;28;20034;-62
2024/01/16 06:39:37;;;;;;;22.67;15.95;;;;;;;-145.63;54.89;39219.81;5012653;28;20033;-61
2024/01/16 06:42:04;;;;;;;22.67;16.67;;;;;;;-145.63;55.57;39213.94;5020348;28;20084;-61
2024/01/16 06:44:30;;;;;;;21.63;16.08;;;;;;;-145.63;54.96;39237.41;5020369;28;20025;-61
2024/01/16 06:46:55;;;;;;;25.33;17.52;;;;;;;-145.63;54.97;39223.72;5042577;28;20038;-60
2024/01/16 06:49:21;;;;;;;24.30;16.65;;;;;;;-145.63;55.61;39237.41;5012681;28;20021;-61
2024/01/16 06:51:47;;;;;;;23.65;16.90;;;;;;;-145.63;55.67;39251.09;5023253;28;20030;-61
2024/01/16 06:54:12;;;;;;;22.77;16.52;;;;;;;-145.63;55.57;39223.72;5015798;28;20027;-61
2024/01/16 06:56:38;;;;;;;23.50;15.85;;;;;;;-145.63;55.41;39249.16;5013957;28;20025;-62
2024/01/16 06:59:04;;;;;;;25.58;18.42;;;;;;;-145.63;56.09;39245.25;5013573;28;20041;-61
2024/01/16 07:01:30;;;;;;;24.10;16.27;;;;;;;-145.63;56.16;39200.25;5019097;28;20041;-64
2024/01/16 07:03:56;;;;;;;24.80;18.20;;;;;;;-145.63;55.85;39221.78;5022937;28;20049;-63
2024/01/16 07:06:21;;;;;;;25.88;17.80;;;;;;;-145.63;56.25;39227.63;5015448;28;20030;-62
2024/01/16 07:08:47;;;;;;;25.70;17.58;;;;;;;-145.63;57.30;39274.56;5020915;28;20172;-62
2024/01/16 07:11:13;;;;;;;29.08;19.27;;;;;;;-145.63;57.54;39213.94;5011879;28;20057;-62
2024/01/16 07:13:43;;;;;;;26.98;19.20;;;;;;;-145.63;58.24;39296.09;5023098;28;20318;-62
2024/01/16 07:16:11;;;;;;;28.17;19.15;;;;;;;-145.63;57.97;39255.00;5020850;28;20022;-61
2024/01/16 07:18:38;;;;;;;27.67;18.85;;;;;;;-145.63;57.91;39243.28;5031275;28;20034;-62
2024/01/16 07:21:04;;;;;;;25.58;18.65;;;;;;;-145.63;57.20;39249.16;5030918;28;20034;-62
2024/01/16 07:23:30;;;;;;;25.38;18.02;;;;;;;-145.63;57.45;39245.25;5025934;28;20034;-62
2024/01/16 07:25:57;;;;;;;28.80;18.10;;;;;;;-145.63;57.26;39215.91;5025985;28;20053;-62
2024/01/16 07:28:23;;;;;;;27.05;18.27;;;;;;;-145.63;57.99;39243.28;5021159;28;20084;-62
2024/01/16 07:30:48;;;;;;;24.77;17.77;;;;;;;-145.63;57.20;39266.75;5021959;28;20030;-63
2024/01/16 07:33:14;;;;;;;26.33;18.95;;;;;;;-145.63;57.47;39213.94;5022805;28;20046;-62
2024/01/16 07:35:41;;;;;;;26.13;17.80;;;;;;;-145.63;56.69;39235.47;5021567;28;20253;-61
2024/01/16 07:38:07;;;;;;;27.38;19.00;;;;;;;-145.63;57.33;39253.06;5022136;28;20034;-61
2024/01/16 07:40:32;;;;;;;26.05;17.90;;;;;;;-145.63;56.58;39270.66;5022417;28;20203;-61
2024/01/16 07:42:58;;;;;;;24.40;17.75;;;;;;;-145.63;57.57;39253.06;5018874;28;20029;-62
2024/01/16 07:45:24;;;;;;;23.55;17.83;;;;;;;-145.63;56.13;39233.50;5019188;28;20064;-61
2024/01/16 07:47:50;;;;;;;27.50;18.50;;;;;;;-145.63;57.07;39258.94;5022134;28;20076;-61
2024/01/16 07:50:16;;;;;;;27.20;18.85;;;;;;;-145.63;56.08;39223.72;5022900;28;20085;-61
2024/01/16 07:52:41;;;;;;;28.88;18.83;;;;;;;-145.63;56.34;39235.47;5022069;28;20033;-62
2024/01/16 07:55:07;;;;;;;27.60;19.15;;;;;;;-145.63;55.94;39235.47;5022110;28;20071;-61
2024/01/16 07:57:33;;;;;;;26.42;17.35;;;;;;;-145.63;56.27;39239.38;5021965;28;20045;-61
2024/01/16 07:59:58;;;;;;;26.00;18.15;;;;;;;-145.63;56.03;39278.47;5021852;28;20247;-61
2024/01/16 08:02:32;;;;;;;26.65;17.75;;;;;;;-145.63;55.32;39256.97;5022032;28;20097;-62
2024/01/16 08:04:57;;;;;;;24.20;17.17;;;;;;;-145.63;55.61;39198.31;5021795;28;20068;-62
2024/01/16 08:07:23;;;;;;;23.35;17.30;;;;;;;-145.63;56.60;39235.47;5021958;28;20060;-61
2024/01/16 08:09:49;;;;;;;25.10;18.23;;;;;;;-145.63;55.41;39233.50;5021770;28;20025;-61
2024/01/16 08:12:14;;;;;;;29.90;18.45;;;;;;;-145.63;55.42;39198.31;5019250;28;20056;-62
2024/01/16 08:14:40;;;;;;;24.52;16.80;;;;;;;-145.63;55.32;39174.84;5025711;28;20029;-61
2024/01/16 08:17:06;;;;;;;21.05;15.00;;;;;;;-145.63;54.86;39168.97;5025986;28;20414;-62
2024/01/16 08:19:32;;;;;;;19.85;15.10;;;;;;;-145.63;54.77;39188.53;5025857;28;20222;-61
2024/01/16 08:21:58;;;;;;;20.40;14.02;;;;;;;-145.63;54.22;39192.44;5025741;28;20032;-63
2024/01/16 08:24:24;;;;;;;19.65;13.88;;;;;;;-145.63;53.57;39192.44;5024572;28;20060;-61
2024/01/16 08:26:49;;;;;;;20.30;14.02;;;;;;;-145.63;54.16;39188.53;5023451;28;20037;-62
2024/01/16 08:29:15;;;;;;;17.15;12.50;;;;;;;-145.63;52.72;39196.34;5025092;28;20105;-62
2024/01/16 08:31:41;;;;;;;19.63;13.85;;;;;;;-145.63;53.04;39190.47;5025632;28;20068;-61
2024/01/16 08:34:07;;;;;;;19.63;13.65;;;;;;;-145.63;53.54;39188.53;5025471;28;20048;-61
2024/01/16 08:36:32;;;;;;;17.98;12.75;;;;;;;-145.63;52.41;39161.13;5025508;28;20064;-61
2024/01/16 08:38:58;;;;;;;16.17;12.27;;;;;;;-145.63;51.95;39184.59;5025405;28;20041;-63
2024/01/16 08:41:24;;;;;;;17.05;11.95;;;;;;;-145.63;52.33;39202.22;5025022;28;20037;-62
2024/01/16 08:43:50;;;;;;;18.45;12.80;;;;;;;-145.63;51.48;39188.53;5020052;28;20025;-63
2024/01/16 08:46:19;;;;;;;18.67;12.07;;;;;;;-145.63;51.39;39180.69;5015197;28;20038;-62
2024/01/16 08:48:45;;;;;;;18.15;12.43;;;;;;;-145.63;52.18;39188.53;5036208;28;20037;-61
2024/01/16 08:51:14;;;;;;;17.63;11.95;;;;;;;-145.63;52.05;39198.31;5034800;28;20021;-62
2024/01/16 08:53:40;;;;;;;17.92;12.18;;;;;;;-145.63;51.84;39210.03;5023474;28;20061;-61
2024/01/16 08:56:07;;;;;;;17.15;11.73;;;;;;;-145.63;52.03;39174.84;5018192;28;20034;-62
2024/01/16 08:58:37;;;;;;;18.33;12.40;;;;;;;-145.63;52.13;39200.25;5053769;28;20391;-62
2024/01/16 09:01:05;;;;;;;18.08;12.10;;;;;;;-145.63;51.64;39231.53;5025047;28;20044;-62
2024/01/16 09:03:32;;;;;;;18.73;12.60;;;;;;;-145.63;52.19;39063.34;5025419;28;20302;-61
2024/01/16 09:05:58;;;;;;;16.90;12.45;;;;;;;-145.63;52.81;39192.44;5025248;28;20026;-61
2024/01/16 09:08:26;;;;;;;20.80;13.38;;;;;;;-145.63;52.29;39206.13;5018705;28;20040;-61
2024/01/16 09:10:56;;;;;;;19.40;12.50;;;;;;;-145.63;52.35;39170.91;5024954;28;20463;-61
2024/01/16 09:13:23;;;;;;;18.15;12.48;;;;;;;-145.63;52.31;39163.09;5009593;28;20053;-60
2024/01/16 09:15:49;;;;;;;20.85;13.23;;;;;;;-145.63;51.50;39145.50;5015006;28;20022;-61
2024/01/16 09:18:16;;;;;;;20.10;13.55;;;;;;;-145.63;51.77;39292.19;5023561;28;20198;-62
2024/01/16 09:20:43;;;;;;;18.88;13.32;;;;;;;-145.63;52.13;39168.97;5010631;28;20030;-62
2024/01/16 09:23:08;;;;;;;17.45;12.55;;;;;;;-145.63;51.62;39174.84;5024980;28;20162;-60
2024/01/16 09:25:35;;;;;;;18.83;13.30;;;;;;;-145.63;51.80;39200.25;5017356;28;20050;-61
2024/01/16 09:28:01;;;;;;;16.05;12.00;;;;;;;-145.63;52.14;39149.41;5005372;28;20033;-62
2024/01/16 09:30:27;;;;;;;18.50;12.20;;;;;;;-145.63;51.70;39176.78;5013227;28;20068;-61
2024/01/16 09:32:52;;;;;;;18.42;12.18;;;;;;;-145.63;51.13;39188.53;5024623;28;20145;-62
2024/01/16 09:35:18;;;;;;;15.55;11.73;;;;;;;-145.63;51.22;39206.13;5020815;28;20090;-62
2024/01/16 09:37:44;;;;;;;17.80;11.52;;;;;;;-145.63;50.68;39192.44;5023764;28;20060;-61
2024/01/16 09:40:11;;;;;;;19.20;12.43;;;;;;;-145.63;50.87;39184.59;5024666;28;20072;-62
2024/01/16 09:42:37;;;;;;;16.58;12.50;;;;;;;-145.63;51.79;39174.84;5017951;28;20046;-61
2024/01/16 09:45:03;;;;;;;16.73;11.30;;;;;;;-145.63;51.00;39198.31;5009428;28;20369;-61
2024/01/16 09:47:33;;;;;;;17.38;11.77;;;;;;;-145.63;50.53;39192.44;5022288;28;20037;-62
2024/01/16 09:50:01;;;;;;;17.13;12.57;;;;;;;-145.63;51.22;39186.56;5031906;28;20056;-62
2024/01/16 09:52:30;;;;;;;20.08;12.13;;;;;;;-145.63;50.76;39174.84;5035214;28;20029;-61
2024/01/16 09:54:56;;;;;;;17.75;12.43;;;;;;;-145.63;50.85;39172.88;5034002;28;20048;-61
2024/01/16 09:57:25;;;;;;;17.55;12.27;;;;;;;-145.63;50.59;38556.88;5035061;28;20214;-61
2024/01/16 09:59:52;;;;;;;21.17;13.93;;;;;;;-145.63;50.76;39188.53;5034580;28;20025;-61
2024/01/16 10:02:20;;;;;;;19.25;13.10;;;;;;;-145.63;52.02;39213.94;5031468;28;20053;-61
2024/01/16 10:04:46;;;;;;;15.77;11.98;;;;;;;-145.63;50.65;39188.53;5034120;28;20207;-62
2024/01/16 10:07:14;;;;;;;16.55;12.23;;;;;;;-145.63;49.86;39176.78;5033539;28;20029;-62
2024/01/16 10:09:39;;;;;;;17.48;12.90;;;;;;;-145.63;50.64;39192.44;5024506;28;20026;-63
2024/01/16 10:12:09;;;;;;;17.95;12.75;;;;;;;-145.63;49.74;39176.78;5024054;28;20342;-63
2024/01/16 10:14:38;;;;;;;15.65;11.57;;;;;;;-145.63;49.94;39127.91;5023512;28;20377;-62
2024/01/16 10:17:25;;;;;;;16.00;11.95;;;;;;;-145.63;49.80;39206.13;5004489;28;20030;-62
2024/01/16 10:19:56;;;;;;;17.58;12.80;;;;;;;-145.63;50.33;39225.69;5023267;28;20042;-61
2024/01/16 10:22:25;;;;;;;;;;;;;;;-145.63;50.43;39213.94;5009498;28;20303;-61
2024/01/16 10:25:12;;;;;;;19.48;13.82;;;;;;;-145.63;49.63;39198.31;5013807;28;19909;-63
2024/01/16 10:27:39;;;;;;;20.10;12.75;;;;;;;-145.63;49.38;39223.72;5015668;28;20029;-62
2024/01/16 10:30:06;;;;;;;18.20;12.77;;;;;;;-145.63;49.71;39200.25;5019360;28;20544;-63
2024/01/16 10:32:37;;;;;;;18.33;12.65;;;;;;;-145.63;50.13;39198.31;5025805;28;20033;-62
2024/01/16 10:35:12;;;;;;;19.92;14.30;;;;;;;-145.63;50.17;39200.25;5028978;28;20026;-62
2024/01/16 10:37:49;;;;;;;18.77;12.57;;;;;;;-145.63;49.90;39215.91;5031220;28;20105;-62
2024/01/16 10:40:29;;;;;;;17.90;13.65;;;;;;;-145.63;50.53;39231.53;5030967;28;20029;-61
2024/01/16 10:43:03;;;;;;;16.60;12.63;;;;;;;-145.63;49.90;39176.78;5027297;28;20068;-60
2024/01/16 10:45:29;;;;;;;17.10;12.73;;;;;;;-145.63;49.74;39219.81;5032756;28;20254;-61
2024/01/16 10:48:05;;;;;;;16.70;13.10;;;;;;;-145.63;50.58;39229.59;5030525;28;20072;-61
2024/01/16 10:50:32;;;;;;;19.30;13.43;;;;;;;-145.63;49.63;39217.84;5016215;28;20056;-61
2024/01/16 10:53:04;;;;;;;17.55;13.05;;;;;;;-145.63;50.24;39212.00;5014414;28;20196;-62
2024/01/16 10:55:37;;;;;;;21.63;13.73;;;;;;;-145.63;50.11;39212.00;5006068;28;20219;-62
2024/01/16 10:58:05;;;;;;;19.70;14.23;;;;;;;-145.63;51.14;39208.06;5035784;28;20037;-61
2024/01/16 11:00:33;;;;;;;20.88;13.93;;;;;;;-145.63;50.68;39212.00;5021741;28;20303;-61